createdAt,value
2022-10-30T00:01:21.711Z,99961.94
2022-10-30T00:03:51.528Z,99961.38
2022-10-30T00:06:21.107Z,99962.19
2022-10-30T00:08:49.570Z,99955.50
2022-10-30T00:11:17.990Z,99946.59
2022-10-30T00:13:47.007Z,99949.91
2022-10-30T00:16:15.375Z,99954.88
2022-10-30T00:18:43.726Z,99948.72
2022-10-30T00:21:15.489Z,99944.84
2022-10-30T00:23:48.127Z,99954.81
2022-10-30T00:26:17.320Z,99945.38
2022-10-30T00:28:45.722Z,99950.63
2022-10-30T00:31:14.109Z,99935.09
2022-10-30T00:33:42.513Z,99939.00
2022-10-30T00:36:12.349Z,99931.78
2022-10-30T00:38:40.707Z,99934.03
2022-10-30T00:41:09.112Z,99925.47
2022-10-30T00:43:40.333Z,99934.38
2022-10-30T00:46:17.882Z,99928.28
2022-10-30T00:48:51.340Z,99918.84
2022-10-30T00:51:22.035Z,99917.72
2022-10-30T00:53:51.301Z,99920.50
2022-10-30T00:56:22.976Z,99916.66
2022-10-30T00:58:56.555Z,99916.69
2022-10-30T01:01:29.810Z,99915.34
2022-10-30T01:04:01.680Z,99921.50
2022-10-30T01:06:33.696Z,99924.00
2022-10-30T01:09:02.838Z,99911.28
2022-10-30T01:11:31.532Z,99915.47
2022-10-30T01:14:06.117Z,99916.28
2022-10-30T01:16:59.078Z,99905.47
2022-10-30T01:19:39.135Z,99906.59
2022-10-30T01:22:28.781Z,99903.28
2022-10-30T01:25:13.251Z,99894.97
2022-10-30T01:27:49.976Z,99893.31
2022-10-30T01:30:31.444Z,99893.06
2022-10-30T01:33:17.012Z,99899.69
2022-10-30T01:35:51.612Z,99905.81
2022-10-30T01:38:28.568Z,99903.94
2022-10-30T01:40:56.948Z,99903.69
2022-10-30T01:43:26.157Z,99908.72
2022-10-30T01:46:15.852Z,99902.06
2022-10-30T01:49:10.805Z,99902.38
2022-10-30T01:52:02.125Z,99899.59
2022-10-30T01:54:39.950Z,99894.06
2022-10-30T01:57:19.391Z,99891.81
2022-10-30T01:59:52.911Z,99884.63
2022-10-30T02:02:21.928Z,99888.19
2022-10-30T02:04:50.875Z,99887.41
2022-10-30T02:07:19.425Z,99877.09
2022-10-30T02:09:49.538Z,99893.47
2022-10-30T02:12:19.055Z,99893.19
2022-10-30T02:14:52.014Z,99886.53
2022-10-30T02:17:21.038Z,99880.38
2022-10-30T02:19:49.407Z,99878.44
2022-10-30T02:22:19.673Z,99880.09
2022-10-30T02:24:48.043Z,99872.88
2022-10-30T02:27:16.456Z,99872.34
2022-10-30T02:29:44.835Z,99873.47
2022-10-30T02:32:13.274Z,99880.38
2022-10-30T02:34:42.995Z,99870.41
2022-10-30T02:37:11.433Z,99874.81
2022-10-30T02:39:41.151Z,99872.59
2022-10-30T02:42:09.562Z,99872.00
2022-10-30T02:44:37.900Z,99873.94
2022-10-30T02:47:06.350Z,99880.63
2022-10-30T02:49:34.716Z,99874.56
2022-10-30T02:52:03.255Z,99878.97
2022-10-30T02:54:31.600Z,99874.25
2022-10-30T02:57:01.324Z,99858.44
2022-10-30T02:59:30.410Z,99867.03
2022-10-30T03:01:58.850Z,99870.09
2022-10-30T03:04:27.372Z,99870.41
2022-10-30T03:06:55.746Z,99867.34
2022-10-30T03:09:24.078Z,99871.25
2022-10-30T03:11:52.453Z,99878.44
2022-10-30T03:14:22.173Z,99859.53
2022-10-30T03:16:52.577Z,99876.72
2022-10-30T03:19:21.104Z,99873.69
2022-10-30T03:21:49.569Z,99881.38
2022-10-30T03:24:17.966Z,99883.38
2022-10-30T03:26:46.444Z,99891.38
2022-10-30T03:29:14.875Z,99886.94
2022-10-30T03:31:44.621Z,99882.53
2022-10-30T03:34:13.006Z,99885.31
2022-10-30T03:36:41.372Z,99882.22
2022-10-30T03:39:09.925Z,99873.91
2022-10-30T03:41:38.322Z,99874.22
2022-10-30T03:44:06.750Z,99880.84
2022-10-30T03:46:35.893Z,99884.16
2022-10-30T03:49:05.600Z,99878.63
2022-10-30T03:51:33.979Z,99882.53
2022-10-30T03:54:02.353Z,99883.41
2022-10-30T03:56:30.710Z,99892.00
2022-10-30T03:58:59.087Z,99891.47
2022-10-30T04:01:27.569Z,99894.53
2022-10-30T04:03:56.090Z,99900.94
2022-10-30T04:06:25.939Z,99894.25
2022-10-30T04:08:56.618Z,99893.13
2022-10-30T04:11:25.055Z,99894.53
2022-10-30T04:13:53.464Z,99890.41
2022-10-30T04:16:21.816Z,99887.63
2022-10-30T04:18:50.221Z,99877.38
2022-10-30T04:21:18.554Z,99892.59
2022-10-30T04:23:48.289Z,99886.19
2022-10-30T04:26:16.673Z,99881.16
2022-10-30T04:28:45.005Z,99886.13
2022-10-30T04:31:13.382Z,99886.94
2022-10-30T04:33:41.779Z,99881.94
2022-10-30T04:36:10.830Z,99882.75
2022-10-30T04:38:39.176Z,99884.72
2022-10-30T04:41:08.847Z,99877.72
2022-10-30T04:43:37.217Z,99870.56
2022-10-30T04:46:06.897Z,99868.59
2022-10-30T04:48:37.231Z,99873.88
2022-10-30T04:51:05.947Z,99878.88
2022-10-30T04:53:34.358Z,99883.59
2022-10-30T04:56:02.738Z,99885.84
2022-10-30T04:58:32.517Z,99878.91
2022-10-30T05:01:03.441Z,99884.78
2022-10-30T05:03:32.166Z,99885.03
2022-10-30T05:06:03.459Z,99889.22
2022-10-30T05:08:32.601Z,99880.09
2022-10-30T05:11:04.869Z,99878.72
2022-10-30T05:13:34.618Z,99881.50
2022-10-30T05:16:02.962Z,99879.84
2022-10-30T05:18:31.294Z,99877.06
2022-10-30T05:20:59.635Z,99882.63
2022-10-30T05:23:27.956Z,99879.84
2022-10-30T05:25:56.329Z,99879.00
2022-10-30T05:28:24.751Z,99874.59
2022-10-30T05:30:55.990Z,99872.13
2022-10-30T05:33:24.345Z,99876.53
2022-10-30T05:35:52.665Z,99882.38
2022-10-30T05:38:21.025Z,99885.44
2022-10-30T05:40:49.343Z,99893.75
2022-10-30T05:43:17.686Z,99881.03
2022-10-30T05:45:46.017Z,99884.09
2022-10-30T05:48:15.732Z,99885.19
2022-10-30T05:50:44.280Z,99894.34
2022-10-30T05:53:12.708Z,99894.06
2022-10-30T05:55:41.030Z,99901.53
2022-10-30T05:58:11.024Z,99902.38
2022-10-30T06:00:40.682Z,99910.16
2022-10-30T06:03:12.599Z,99917.66
2022-10-30T06:05:45.551Z,99914.03
2022-10-30T06:08:16.308Z,99923.19
2022-10-30T06:10:44.673Z,99932.34
2022-10-30T06:13:13.216Z,99924.31
2022-10-30T06:15:41.571Z,99922.34
2022-10-30T06:18:09.925Z,99923.72
2022-10-30T06:20:38.271Z,99918.19
2022-10-30T06:23:09.523Z,99914.59
2022-10-30T06:25:41.326Z,99922.63
2022-10-30T06:28:11.648Z,99917.91
2022-10-30T06:30:40.477Z,99922.09
2022-10-30T06:33:09.202Z,99924.56
2022-10-30T06:35:37.546Z,99922.91
2022-10-30T06:38:08.812Z,99937.31
2022-10-30T06:40:37.182Z,99933.72
2022-10-30T06:43:05.554Z,99939.84
2022-10-30T06:45:33.937Z,99940.41
2022-10-30T06:48:02.849Z,99931.28
2022-10-30T06:50:31.506Z,99930.75
2022-10-30T06:52:59.889Z,99938.22
2022-10-30T06:55:29.600Z,99934.91
2022-10-30T06:57:58.962Z,99925.75
2022-10-30T07:00:27.671Z,99922.47
2022-10-30T07:03:01.772Z,99915.25
2022-10-30T07:05:30.728Z,99908.06
2022-10-30T07:08:00.067Z,99896.19
2022-10-30T07:10:29.860Z,99893.75
2022-10-30T07:13:00.041Z,99899.00
2022-10-30T07:15:28.910Z,99904.84
2022-10-30T07:17:59.880Z,99914.00
2022-10-30T07:20:30.700Z,99916.78
2022-10-30T07:22:59.076Z,99922.84
2022-10-30T07:25:27.760Z,99926.72
2022-10-30T07:27:58.855Z,99921.97
2022-10-30T07:30:28.948Z,99928.84
2022-10-30T07:33:02.974Z,99931.53
2022-10-30T07:35:32.336Z,99942.34
2022-10-30T07:38:04.684Z,99933.41
2022-10-30T07:40:33.208Z,99936.19
2022-10-30T07:43:05.035Z,99936.78
2022-10-30T07:45:33.962Z,99940.97
2022-10-30T07:48:02.714Z,99941.78
2022-10-30T07:50:31.479Z,99932.34
2022-10-30T07:53:00.111Z,99937.03
2022-10-30T07:55:28.534Z,99936.97
2022-10-30T07:57:57.544Z,99937.19
2022-10-30T08:00:27.537Z,99935.75
2022-10-30T08:02:59.367Z,99932.34
2022-10-30T08:05:28.954Z,99942.56
2022-10-30T08:07:58.798Z,99936.13
2022-10-30T08:10:27.654Z,99944.94
2022-10-30T08:12:56.116Z,99937.94
2022-10-30T08:15:24.925Z,99933.75
2022-10-30T08:17:55.373Z,99929.03
2022-10-30T08:20:25.659Z,99939.53
2022-10-30T08:22:56.474Z,99925.31
2022-10-30T08:25:28.792Z,99926.38
2022-10-30T08:27:59.513Z,99926.91
2022-10-30T08:30:30.279Z,99918.56
2022-10-30T08:33:00.944Z,99922.13
2022-10-30T08:35:30.266Z,99917.84
2022-10-30T08:38:00.217Z,99924.75
2022-10-30T08:40:29.071Z,99920.88
2022-10-30T08:42:59.056Z,99915.25
2022-10-30T08:45:30.909Z,99912.13
2022-10-30T08:48:03.420Z,99913.47
2022-10-30T08:50:32.684Z,99910.38
2022-10-30T08:53:03.328Z,99914.81
2022-10-30T08:55:32.542Z,99917.56
2022-10-30T08:58:01.270Z,99919.25
2022-10-30T09:00:30.526Z,99914.75
2022-10-30T09:03:00.853Z,99917.19
2022-10-30T09:05:29.888Z,99915.47
2022-10-30T09:08:01.462Z,99917.06
2022-10-30T09:10:31.985Z,99913.06
2022-10-30T09:13:02.504Z,99913.25
2022-10-30T09:15:31.315Z,99910.53
2022-10-30T09:18:03.658Z,99915.63
2022-10-30T09:20:32.751Z,99923.00
2022-10-30T09:23:01.660Z,99917.75
2022-10-30T09:25:30.687Z,99919.31
2022-10-30T09:27:59.129Z,99915.81
2022-10-30T09:30:27.626Z,99905.44
2022-10-30T09:32:57.936Z,99907.81
2022-10-30T09:35:28.410Z,99916.06
2022-10-30T09:37:57.405Z,99905.66
2022-10-30T09:40:39.466Z,99908.88
2022-10-30T09:43:24.651Z,99911.25
2022-10-30T09:46:36.175Z,99911.56
2022-10-30T09:49:38.358Z,99908.78
2022-10-30T09:52:27.614Z,99899.91
2022-10-30T09:55:29.030Z,99900.75
2022-10-30T09:58:13.146Z,99904.66
2022-10-30T10:00:49.514Z,99916.00
2022-10-30T10:03:40.575Z,99905.28
2022-10-30T10:06:16.866Z,99903.44
2022-10-30T10:08:53.183Z,99906.94
2022-10-30T10:11:27.037Z,99897.88
2022-10-30T10:14:00.584Z,99904.78
2022-10-30T10:16:32.799Z,99898.91
2022-10-30T10:19:10.133Z,99898.59
2022-10-30T10:21:45.986Z,99904.41
2022-10-30T10:24:22.087Z,99899.03
2022-10-30T10:26:54.963Z,99902.03
2022-10-30T10:29:51.456Z,99905.84
2022-10-30T10:32:52.324Z,99893.97
2022-10-30T10:35:54.577Z,99896.63
2022-10-30T10:38:40.527Z,99894.16
2022-10-30T10:41:19.889Z,99888.22
2022-10-30T10:44:17.806Z,99883.69
2022-10-30T10:47:06.765Z,99883.69
2022-10-30T10:49:52.737Z,99881.19
2022-10-30T10:52:25.917Z,99876.13
2022-10-30T10:54:58.687Z,99879.97
2022-10-30T10:57:34.409Z,99869.47
2022-10-30T11:00:07.259Z,99866.59
2022-10-30T11:02:42.724Z,99874.63
2022-10-30T11:05:23.194Z,99873.16
2022-10-30T11:07:52.277Z,99864.09
2022-10-30T11:10:23.785Z,99854.31
2022-10-30T11:12:53.727Z,99859.47
2022-10-30T11:15:36.062Z,99858.97
2022-10-30T11:20:45.831Z,99856.09
2022-10-30T11:23:39.949Z,99854.78
2022-10-30T11:26:34.609Z,99856.63
2022-10-30T11:29:14.674Z,99851.41
2022-10-30T11:31:47.212Z,99850.63
2022-10-30T11:34:26.264Z,99849.19
2022-10-30T11:36:56.050Z,99840.63
2022-10-30T11:39:27.416Z,99847.16
2022-10-30T11:42:07.327Z,99840.75
2022-10-30T11:44:41.260Z,99841.59
2022-10-30T11:47:12.828Z,99837.97
2022-10-30T11:49:47.984Z,99837.25
2022-10-30T11:52:20.147Z,99843.00
2022-10-30T11:54:54.247Z,99838.38
2022-10-30T11:57:34.298Z,99850.66
2022-10-30T12:00:08.001Z,99848.88
2022-10-30T12:02:44.056Z,99847.09
2022-10-30T12:05:36.819Z,99836.25
2022-10-30T12:08:21.521Z,99837.25
2022-10-30T12:11:01.856Z,99832.38
2022-10-30T12:13:38.987Z,99843.22
2022-10-30T12:16:19.169Z,99841.88
2022-10-30T12:19:03.084Z,99837.47
2022-10-30T12:21:38.111Z,99846.66
2022-10-30T12:24:13.679Z,99843.16
2022-10-30T12:26:42.327Z,99833.78
2022-10-30T12:29:18.531Z,99838.38
2022-10-30T12:31:56.938Z,99835.03
2022-10-30T12:34:36.500Z,99830.13
2022-10-30T12:37:14.829Z,99830.81
2022-10-30T12:39:58.066Z,99823.34
2022-10-30T12:42:27.479Z,99822.97
2022-10-30T12:45:09.303Z,99820.91
2022-10-30T12:47:46.734Z,99820.63
2022-10-30T12:50:23.906Z,99830.94
2022-10-30T12:53:01.907Z,99822.69
2022-10-30T12:55:36.867Z,99828.09
2022-10-30T12:58:17.892Z,99816.53
2022-10-30T13:00:54.506Z,99812.84
2022-10-30T13:03:32.844Z,99828.34
2022-10-30T13:06:11.856Z,99815.84
2022-10-30T13:08:51.193Z,99822.34
2022-10-30T13:11:29.934Z,99815.44
2022-10-30T13:14:01.348Z,99812.38
2022-10-30T13:16:32.180Z,99813.69
2022-10-30T13:19:03.826Z,99805.97
2022-10-30T13:21:40.196Z,99810.50
2022-10-30T13:24:13.875Z,99810.81
2022-10-30T13:26:52.101Z,99809.44
2022-10-30T13:29:28.425Z,99803.97
2022-10-30T13:32:26.542Z,99801.09
2022-10-30T13:35:07.497Z,99791.50
2022-10-30T13:37:43.179Z,99798.66
2022-10-30T13:40:22.128Z,99806.88
2022-10-30T13:43:03.394Z,99807.31
2022-10-30T13:46:03.348Z,99811.66
2022-10-30T13:49:10.469Z,99813.19
2022-10-30T13:51:45.235Z,99807.91
2022-10-30T13:54:22.611Z,99804.31
2022-10-30T13:56:52.649Z,99804.75
2022-10-30T13:59:47.206Z,99796.59
2022-10-30T14:02:31.182Z,99802.38
2022-10-30T14:05:05.590Z,99802.88
2022-10-30T14:07:43.653Z,99806.78
2022-10-30T14:10:21.778Z,99799.69
2022-10-30T14:13:06.502Z,99801.72
2022-10-30T14:15:42.094Z,99805.75
2022-10-30T14:18:29.108Z,99807.09
2022-10-30T14:20:59.719Z,99804.41
2022-10-30T14:23:35.123Z,99798.97
2022-10-30T14:26:23.086Z,99808.03
2022-10-30T14:28:56.147Z,99799.97
2022-10-30T14:31:36.879Z,99797.59
2022-10-30T14:34:05.780Z,99804.31
2022-10-30T14:36:52.651Z,99807.25
2022-10-30T14:39:31.157Z,99797.97
2022-10-30T14:42:12.316Z,99799.72
2022-10-30T14:45:08.750Z,99795.06
2022-10-30T14:48:00.792Z,99799.88
2022-10-30T14:50:58.000Z,99806.03
2022-10-30T14:53:48.930Z,99807.75
2022-10-30T14:56:33.906Z,99802.78
2022-10-30T14:59:24.879Z,99802.06
2022-10-30T15:02:19.862Z,99789.91
2022-10-30T15:05:09.921Z,99792.97
2022-10-30T15:07:50.408Z,99789.69
2022-10-30T15:10:26.728Z,99791.34
2022-10-30T15:13:10.811Z,99791.88
2022-10-30T15:15:39.926Z,99790.44
2022-10-30T15:18:16.900Z,99791.03
2022-10-30T15:20:45.640Z,99788.03
2022-10-30T15:23:24.251Z,99790.84
2022-10-30T15:25:56.407Z,99791.25
2022-10-30T15:28:29.966Z,99782.75
2022-10-30T15:31:04.201Z,99788.97
2022-10-30T15:33:35.477Z,99787.09
2022-10-30T15:36:03.973Z,99782.44
2022-10-30T15:38:32.710Z,99781.94
2022-10-30T15:41:04.710Z,99781.69
2022-10-30T15:43:40.368Z,99782.00
2022-10-30T15:46:12.188Z,99786.72
2022-10-30T15:48:43.221Z,99790.00
2022-10-30T15:51:18.065Z,99783.34
2022-10-30T15:53:50.903Z,99784.97
2022-10-30T15:56:26.054Z,99787.47
2022-10-30T15:59:00.374Z,99779.72
2022-10-30T16:01:33.959Z,99782.81
2022-10-30T16:04:03.534Z,99780.03
2022-10-30T16:06:33.752Z,99782.00
2022-10-30T16:09:05.947Z,99782.25
2022-10-30T16:11:34.497Z,99786.50
2022-10-30T16:14:12.175Z,99789.03
2022-10-30T16:16:40.851Z,99796.00
2022-10-30T16:19:09.557Z,99797.13
2022-10-30T16:21:39.136Z,99790.75
2022-10-30T16:24:10.907Z,99785.19
2022-10-30T16:26:40.395Z,99785.72
2022-10-30T16:29:24.627Z,99788.81
2022-10-30T16:31:54.987Z,99785.19
2022-10-30T16:34:31.887Z,99782.19
2022-10-30T16:37:01.185Z,99783.31
2022-10-30T16:39:30.979Z,99778.03
2022-10-30T16:42:01.004Z,99788.63
2022-10-30T16:44:33.071Z,99785.84
2022-10-30T16:47:07.471Z,99788.34
2022-10-30T16:49:38.319Z,99786.09
2022-10-30T16:52:09.236Z,99791.66
2022-10-30T16:54:40.866Z,99788.88
2022-10-30T16:57:17.593Z,99785.25
2022-10-30T16:59:51.865Z,99783.91
2022-10-30T17:02:24.281Z,99787.81
2022-10-30T17:04:58.534Z,99790.59
2022-10-30T17:07:28.075Z,99789.75
2022-10-30T17:09:58.621Z,99791.19
2022-10-30T17:12:29.878Z,99795.94
2022-10-30T17:15:13.825Z,99804.94
2022-10-30T17:17:43.695Z,99806.88
2022-10-30T17:20:31.159Z,99806.66
2022-10-30T17:23:15.693Z,99808.63
2022-10-30T17:25:44.695Z,99816.94
2022-10-30T17:28:28.982Z,99811.66
2022-10-30T17:31:20.292Z,99815.28
2022-10-30T17:34:04.773Z,99813.84
2022-10-30T17:36:34.351Z,99817.47
2022-10-30T17:39:03.725Z,99815.78
2022-10-30T17:41:33.103Z,99808.88
2022-10-30T17:44:02.503Z,99815.84
2022-10-30T17:46:32.962Z,99810.28
2022-10-30T17:49:03.169Z,99810.03
2022-10-30T17:51:32.610Z,99811.09
2022-10-30T17:54:01.923Z,99806.06
2022-10-30T17:56:35.283Z,99813.28
2022-10-30T17:59:04.059Z,99809.97
2022-10-30T18:01:35.906Z,99816.94
2022-10-30T18:04:20.480Z,99817.81
2022-10-30T18:06:50.429Z,99812.84
2022-10-30T18:09:19.117Z,99812.84
2022-10-30T18:11:50.348Z,99811.44
2022-10-30T18:14:19.283Z,99811.44
2022-10-30T18:16:52.911Z,99809.78
2022-10-30T18:19:25.187Z,99806.19
2022-10-30T18:21:54.749Z,99807.84
2022-10-30T18:24:26.757Z,99811.13
2022-10-30T18:26:57.285Z,99810.84
2022-10-30T18:29:27.262Z,99816.09
2022-10-30T18:31:58.386Z,99805.53
2022-10-30T18:34:28.553Z,99805.47
2022-10-30T18:36:58.555Z,99814.34
2022-10-30T18:39:27.616Z,99797.69
2022-10-30T18:41:57.538Z,99793.78
2022-10-30T18:44:27.838Z,99804.06
2022-10-30T18:47:03.010Z,99801.56
2022-10-30T18:49:33.911Z,99802.69
2022-10-30T18:52:03.974Z,99804.13
2022-10-30T18:54:34.261Z,99809.13
2022-10-30T18:57:04.115Z,99796.91
2022-10-30T18:59:33.982Z,99802.19
2022-10-30T19:02:06.089Z,99800.50
2022-10-30T19:04:37.840Z,99797.47
2022-10-30T19:07:07.378Z,99801.03
2022-10-30T19:09:36.928Z,99803.81
2022-10-30T19:12:06.872Z,99804.94
2022-10-30T19:14:36.565Z,99801.34
2022-10-30T19:17:06.890Z,99807.41
2022-10-30T19:19:36.254Z,99796.00
2022-10-30T19:22:07.108Z,99799.34
2022-10-30T19:24:37.243Z,99792.97
2022-10-30T19:27:06.992Z,99799.03
2022-10-30T19:29:38.097Z,99794.59
2022-10-30T19:32:12.080Z,99798.50
2022-10-30T19:34:46.115Z,99801.28
2022-10-30T19:37:15.769Z,99799.03
2022-10-30T19:39:44.966Z,99801.50
2022-10-30T19:42:14.476Z,99804.59
2022-10-30T19:44:44.648Z,99800.16
2022-10-30T19:47:16.545Z,99805.69
2022-10-30T19:49:47.226Z,99793.50
2022-10-30T19:52:18.814Z,99797.09
2022-10-30T19:54:48.909Z,99797.09
2022-10-30T19:59:54.576Z,99791.25
2022-10-30T20:02:26.100Z,99795.69
2022-10-30T20:04:56.794Z,99788.16
2022-10-30T20:07:26.568Z,99784.28
2022-10-30T20:09:56.756Z,99791.75
2022-10-30T20:12:26.638Z,99795.06
2022-10-30T20:14:55.991Z,99800.63
2022-10-30T20:17:27.855Z,99797.84
2022-10-30T20:19:57.593Z,99798.44
2022-10-30T20:22:28.464Z,99799.56
2022-10-30T20:24:57.609Z,99801.81
2022-10-30T20:27:28.553Z,99804.91
2022-10-30T20:29:58.412Z,99801.81
2022-10-30T20:32:29.769Z,99793.50
2022-10-30T20:34:59.402Z,99792.06
2022-10-30T20:37:29.053Z,99802.03
2022-10-30T20:39:59.122Z,99794.84
2022-10-30T20:42:30.831Z,99792.91
2022-10-30T20:45:02.104Z,99801.50
2022-10-30T20:47:32.894Z,99790.41
2022-10-30T20:50:02.362Z,99799.56
2022-10-30T20:52:31.508Z,99799.56
2022-10-30T20:55:00.845Z,99795.94
2022-10-30T20:57:29.530Z,99800.97
2022-10-30T20:59:58.817Z,99809.63
2022-10-30T21:02:27.886Z,99801.56
2022-10-30T21:05:11.592Z,99804.34
2022-10-30T21:07:46.106Z,99800.75
2022-10-30T21:10:15.244Z,99797.16
2022-10-30T21:12:43.706Z,99804.06
2022-10-30T21:15:12.803Z,99799.03
2022-10-30T21:17:41.881Z,99797.63
2022-10-30T21:20:13.995Z,99800.63
2022-10-30T21:22:42.408Z,99800.34
2022-10-30T21:25:11.241Z,99795.59
2022-10-30T21:27:40.803Z,99805.59
2022-10-30T21:30:11.895Z,99793.94
2022-10-30T21:32:40.290Z,99798.66
2022-10-30T21:35:11.143Z,99799.50
2022-10-30T21:37:39.666Z,99800.91
2022-10-30T21:40:10.241Z,99800.41
2022-10-30T21:42:38.734Z,99801.50
2022-10-30T21:45:09.526Z,99796.00
2022-10-30T21:47:37.865Z,99805.16
2022-10-30T21:50:11.684Z,99797.16
2022-10-30T21:52:42.204Z,99808.56
2022-10-30T21:55:10.984Z,99796.09
2022-10-30T21:57:39.353Z,99793.91
2022-10-30T22:00:09.914Z,99797.00
2022-10-30T22:02:38.284Z,99797.00
2022-10-30T22:05:07.661Z,99798.63
2022-10-30T22:07:36.123Z,99799.44
2022-10-30T22:10:07.761Z,99802.53
2022-10-30T22:12:36.126Z,99794.50
2022-10-30T22:15:05.239Z,99792.84
2022-10-30T22:17:34.984Z,99789.25
2022-10-30T22:20:03.884Z,99788.94
2022-10-30T22:22:32.331Z,99798.34
2022-10-30T22:25:00.665Z,99791.66
2022-10-30T22:27:30.425Z,99793.31
2022-10-30T22:29:58.766Z,99785.00
2022-10-30T22:32:27.176Z,99787.47
2022-10-30T22:34:56.663Z,99779.44
2022-10-30T22:37:25.667Z,99796.38
2022-10-30T22:39:54.059Z,99786.41
2022-10-30T22:42:22.461Z,99793.06
2022-10-30T22:44:52.162Z,99788.09
2022-10-30T22:47:20.499Z,99792.53
2022-10-30T22:49:48.892Z,99782.28
2022-10-30T22:52:17.262Z,99783.91
2022-10-30T22:54:45.648Z,99795.31
2022-10-30T22:57:14.029Z,99797.56
2022-10-30T22:59:43.152Z,99791.22
2022-10-30T23:02:13.005Z,99795.41
2022-10-30T23:04:41.591Z,99792.09
2022-10-30T23:07:09.942Z,99791.56
2022-10-30T23:09:38.324Z,99798.53
2022-10-30T23:12:07.622Z,99793.81
2022-10-30T23:14:36.267Z,99794.66
2022-10-30T23:17:04.643Z,99794.34
2022-10-30T23:19:34.389Z,99788.25
2022-10-30T23:22:02.741Z,99787.97
2022-10-30T23:24:31.087Z,99786.00
2022-10-30T23:26:59.451Z,99781.31
2022-10-30T23:29:27.790Z,99790.72
2022-10-30T23:31:56.146Z,99781.88
2022-10-30T23:34:24.486Z,99788.03
2022-10-30T23:36:57.713Z,99791.09
2022-10-30T23:39:29.746Z,99795.81
2022-10-30T23:41:58.143Z,99788.63
2022-10-30T23:44:26.520Z,99790.03
2022-10-30T23:46:54.891Z,99797.50
2022-10-30T23:49:23.245Z,99800.28
2022-10-30T23:51:53.046Z,99796.69
2022-10-30T23:54:21.419Z,99794.47
2022-10-30T23:56:49.764Z,99793.31
2022-10-30T23:59:18.111Z,99792.22
